createdAt,value
2023-05-15T00:00:53.428Z,98787.02
2023-05-15T00:02:07.523Z,98786.52
2023-05-15T00:03:13.277Z,98789.13
2023-05-15T00:04:19.381Z,98788.06
2023-05-15T00:05:25.423Z,98787.66
2023-05-15T00:06:31.128Z,98789.79
2023-05-15T00:07:37.037Z,98785.84
2023-05-15T00:08:43.543Z,98789.98
2023-05-15T00:09:49.479Z,98790.70
2023-05-15T00:11:01.707Z,98795.77
2023-05-15T00:12:08.745Z,98797.52
2023-05-15T00:13:14.804Z,98794.91
2023-05-15T00:14:22.631Z,98795.23
2023-05-15T00:15:28.578Z,98798.10
2023-05-15T00:16:34.511Z,98796.60
2023-05-15T00:17:41.206Z,98801.30
2023-05-15T00:18:46.956Z,98797.33
2023-05-15T00:19:58.291Z,98794.71
2023-05-15T00:21:04.432Z,98797.64
2023-05-15T00:22:11.208Z,98800.75
2023-05-15T00:23:18.320Z,98800.34
2023-05-15T00:24:24.528Z,98805.42
2023-05-15T00:25:30.006Z,98807.96
2023-05-15T00:26:35.500Z,98808.27
2023-05-15T00:27:42.889Z,98809.86
2023-05-15T00:28:48.626Z,98806.04
2023-05-15T00:29:55.680Z,98807.64
2023-05-15T00:31:01.794Z,98812.55
2023-05-15T00:32:08.796Z,98807.83
2023-05-15T00:33:14.887Z,98810.11
2023-05-15T00:34:22.520Z,98812.56
2023-05-15T00:35:28.998Z,98815.48
2023-05-15T00:36:36.617Z,98817.26
2023-05-15T00:37:43.150Z,98818.37
2023-05-15T00:38:49.300Z,98819.58
2023-05-15T00:39:54.832Z,98816.91
2023-05-15T00:41:01.882Z,98816.84
2023-05-15T00:42:08.103Z,98817.35
2023-05-15T00:43:13.916Z,98815.85
2023-05-15T00:44:20.766Z,98817.14
2023-05-15T00:45:27.168Z,98817.13
2023-05-15T00:46:33.620Z,98816.58
2023-05-15T00:47:41.585Z,98818.80
2023-05-15T00:48:47.245Z,98818.70
2023-05-15T00:49:52.640Z,98817.16
2023-05-15T00:50:59.617Z,98822.91
2023-05-15T00:52:06.012Z,98819.98
2023-05-15T00:53:12.122Z,98823.34
2023-05-15T00:54:17.892Z,98822.67
2023-05-15T00:55:23.706Z,98825.89
2023-05-15T00:56:29.792Z,98825.16
2023-05-15T00:57:35.456Z,98824.45
2023-05-15T00:58:41.760Z,98823.43
2023-05-15T00:59:47.392Z,98824.14
2023-05-15T01:00:56.525Z,98823.52
2023-05-15T01:02:02.587Z,98823.94
2023-05-15T01:03:10.115Z,98822.90
2023-05-15T01:04:16.412Z,98825.36
2023-05-15T01:05:23.259Z,98827.02
2023-05-15T01:06:31.065Z,98827.99
2023-05-15T01:07:43.764Z,98829.16
2023-05-15T01:08:49.737Z,98833.38
2023-05-15T01:09:55.434Z,98832.96
2023-05-15T01:11:02.512Z,98834.80
2023-05-15T01:12:09.050Z,98839.17
2023-05-15T01:13:15.692Z,98835.75
2023-05-15T01:14:22.224Z,98833.52
2023-05-15T01:15:28.271Z,98832.61
2023-05-15T01:16:34.843Z,98833.77
2023-05-15T01:17:41.724Z,98833.21
2023-05-15T01:18:47.669Z,98830.28
2023-05-15T01:19:53.558Z,98831.00
2023-05-15T01:21:28.822Z,98830.67
2023-05-15T01:22:46.088Z,98831.62
2023-05-15T01:24:13.492Z,98830.67
2023-05-15T01:25:55.710Z,98834.08
2023-05-15T01:27:25.499Z,98834.92
2023-05-15T01:28:37.783Z,98835.32
2023-05-15T01:29:57.360Z,98834.38
2023-05-15T01:31:07.501Z,98836.57
2023-05-15T01:32:19.564Z,98837.50
2023-05-15T01:33:30.933Z,98839.19
2023-05-15T01:34:47.143Z,98837.52
2023-05-15T01:36:16.675Z,98837.05
2023-05-15T01:37:26.007Z,98844.10
2023-05-15T01:38:40.137Z,98843.16
2023-05-15T01:39:45.520Z,98849.98
2023-05-15T01:40:58.723Z,98850.02
2023-05-15T01:42:07.984Z,98850.17
2023-05-15T01:43:17.009Z,98854.78
2023-05-15T01:44:38.296Z,98853.76
2023-05-15T01:45:44.271Z,98853.77
2023-05-15T01:46:52.404Z,98855.44
2023-05-15T01:47:57.938Z,98856.17
2023-05-15T01:49:06.932Z,98852.67
2023-05-15T01:50:14.458Z,98855.33
2023-05-15T01:51:21.328Z,98859.30
2023-05-15T01:52:31.853Z,98857.02
2023-05-15T01:53:38.065Z,98859.64
2023-05-15T01:54:44.314Z,98859.44
2023-05-15T01:55:50.783Z,98860.42
2023-05-15T01:56:56.823Z,98860.64
2023-05-15T01:58:02.873Z,98861.98
2023-05-15T01:59:09.319Z,98859.46
2023-05-15T02:00:15.512Z,98857.14
2023-05-15T02:01:21.047Z,98857.54
2023-05-15T02:02:28.298Z,98860.41
2023-05-15T02:03:35.281Z,98863.84
2023-05-15T02:04:41.420Z,98867.75
2023-05-15T02:05:47.767Z,98865.86
2023-05-15T02:06:54.221Z,98865.07
2023-05-15T02:08:00.062Z,98864.94
2023-05-15T02:09:06.192Z,98864.78
2023-05-15T02:10:13.224Z,98866.92
2023-05-15T02:11:20.039Z,98868.49
2023-05-15T02:12:27.083Z,98872.68
2023-05-15T02:13:32.647Z,98873.43
2023-05-15T02:14:38.816Z,98873.89
2023-05-15T02:15:44.560Z,98876.83
2023-05-15T02:16:52.356Z,98878.34
2023-05-15T02:17:57.652Z,98885.42
2023-05-15T02:19:03.053Z,98881.75
2023-05-15T02:20:09.861Z,98883.10
2023-05-15T02:21:16.647Z,98883.66
2023-05-15T02:22:22.579Z,98885.39
2023-05-15T02:23:29.132Z,98888.10
2023-05-15T02:24:35.029Z,98890.95
2023-05-15T02:26:22.020Z,98891.36
2023-05-15T02:27:30.281Z,98897.38
2023-05-15T02:28:40.293Z,98895.31
2023-05-15T02:30:26.962Z,98897.54
2023-05-15T02:31:37.354Z,98893.00
2023-05-15T02:33:12.218Z,98895.12
2023-05-15T02:34:39.249Z,98893.70
2023-05-15T02:36:09.694Z,98895.73
2023-05-15T02:37:18.610Z,98897.64
2023-05-15T02:38:27.155Z,98898.20
2023-05-15T02:39:33.027Z,98893.27
2023-05-15T02:40:39.209Z,98894.41
2023-05-15T02:41:46.215Z,98897.41
2023-05-15T02:42:55.076Z,98894.24
2023-05-15T02:44:14.788Z,98897.20
2023-05-15T02:45:21.211Z,98899.58
2023-05-15T02:46:27.417Z,98899.58
2023-05-15T02:47:32.903Z,98901.72
2023-05-15T02:48:43.171Z,98906.65
2023-05-15T02:49:49.189Z,98901.98
2023-05-15T02:50:55.142Z,98903.97
2023-05-15T02:52:01.011Z,98905.25
2023-05-15T02:53:08.456Z,98908.67
2023-05-15T02:54:14.710Z,98912.17
2023-05-15T02:55:21.350Z,98911.05
2023-05-15T02:56:26.934Z,98913.77
2023-05-15T02:57:32.803Z,98915.59
2023-05-15T02:58:38.964Z,98913.86
2023-05-15T02:59:44.458Z,98912.45
2023-05-15T03:00:51.504Z,98914.62
2023-05-15T03:01:57.382Z,98916.21
2023-05-15T03:03:03.632Z,98919.70
2023-05-15T03:04:09.514Z,98921.92
2023-05-15T03:05:15.205Z,98923.13
2023-05-15T03:06:20.722Z,98924.40
2023-05-15T03:07:26.471Z,98925.11
2023-05-15T03:08:32.507Z,98928.05
2023-05-15T03:09:38.190Z,98930.70
2023-05-15T03:10:44.587Z,98927.31
2023-05-15T03:11:50.269Z,98931.42
2023-05-15T03:13:00.153Z,98934.05
2023-05-15T03:14:08.928Z,98935.95
2023-05-15T03:15:14.707Z,98940.08
2023-05-15T03:16:20.774Z,98941.19
2023-05-15T03:17:26.737Z,98941.02
2023-05-15T03:18:33.196Z,98944.82
2023-05-15T03:19:39.813Z,98943.57
2023-05-15T03:20:45.651Z,98941.59
2023-05-15T03:21:51.511Z,98943.80
2023-05-15T03:22:57.625Z,98942.14
2023-05-15T03:24:03.792Z,98946.29
2023-05-15T03:25:12.091Z,98947.48
2023-05-15T03:26:18.213Z,98945.56
2023-05-15T03:27:24.373Z,98947.88
2023-05-15T03:28:29.828Z,98946.92
2023-05-15T03:29:36.031Z,98947.16
2023-05-15T03:30:44.493Z,98949.47
2023-05-15T03:31:50.147Z,98948.92
2023-05-15T03:32:57.965Z,98953.79
2023-05-15T03:34:04.758Z,98954.18
2023-05-15T03:35:11.665Z,98952.67
2023-05-15T03:36:18.376Z,98955.06
2023-05-15T03:37:24.137Z,98958.48
2023-05-15T03:38:30.566Z,98960.48
2023-05-15T03:39:37.580Z,98961.49
2023-05-15T03:40:43.635Z,98962.37
2023-05-15T03:41:49.258Z,98961.33
2023-05-15T03:42:54.686Z,98964.89
2023-05-15T03:44:00.868Z,98965.77
2023-05-15T03:45:07.481Z,98967.83
2023-05-15T03:46:13.484Z,98970.77
2023-05-15T03:47:19.915Z,98969.33
2023-05-15T03:48:25.827Z,98977.02
2023-05-15T03:49:32.387Z,98982.90
2023-05-15T03:50:37.941Z,98980.68
2023-05-15T03:51:44.312Z,98979.66
2023-05-15T03:52:52.515Z,98980.21
2023-05-15T03:53:58.859Z,98986.94
2023-05-15T03:55:05.005Z,98986.78
2023-05-15T03:56:10.028Z,98984.17
2023-05-15T03:57:15.280Z,98987.11
2023-05-15T03:58:20.622Z,98989.34
2023-05-15T03:59:28.294Z,98989.17
2023-05-15T04:00:34.244Z,98992.27
2023-05-15T04:01:54.680Z,98993.97
2023-05-15T04:03:05.554Z,98994.74
2023-05-15T04:04:11.731Z,98995.30
2023-05-15T04:05:20.080Z,98994.69
2023-05-15T04:06:26.368Z,98995.23
2023-05-15T04:07:34.010Z,98995.89
2023-05-15T04:08:40.415Z,98999.45
2023-05-15T04:09:46.880Z,99001.05
2023-05-15T04:10:52.862Z,99004.95
2023-05-15T04:11:58.499Z,99005.66
2023-05-15T04:13:03.820Z,99007.38
2023-05-15T04:14:11.012Z,99008.27
2023-05-15T04:15:20.568Z,99009.45
2023-05-15T04:16:27.040Z,99012.77
2023-05-15T04:17:32.854Z,99015.39
2023-05-15T04:18:39.209Z,99017.94
2023-05-15T04:19:46.421Z,99020.65
2023-05-15T04:20:52.940Z,99022.71
2023-05-15T04:21:58.554Z,99027.55
2023-05-15T04:23:07.597Z,99029.84
2023-05-15T04:24:14.198Z,99032.25
2023-05-15T04:25:21.006Z,99034.63
2023-05-15T04:26:27.174Z,99037.56
2023-05-15T04:27:33.302Z,99038.23
2023-05-15T04:28:41.443Z,99041.48
2023-05-15T04:29:50.239Z,99042.11
2023-05-15T04:30:56.552Z,99037.88
2023-05-15T04:32:03.151Z,99040.77
2023-05-15T04:33:09.656Z,99041.26
2023-05-15T04:34:16.645Z,99045.01
2023-05-15T04:35:23.047Z,99047.40
2023-05-15T04:36:28.839Z,99045.02
2023-05-15T04:37:34.356Z,99050.02
2023-05-15T04:38:40.150Z,99054.88
2023-05-15T04:39:49.073Z,99055.95
2023-05-15T04:40:54.611Z,99056.52
2023-05-15T04:42:00.166Z,99056.84
2023-05-15T04:43:05.764Z,99061.55
2023-05-15T04:44:12.514Z,99065.98
2023-05-15T04:45:18.377Z,99066.64
2023-05-15T04:46:24.724Z,99067.09
2023-05-15T04:47:31.265Z,99068.14
2023-05-15T04:48:36.737Z,99070.36
2023-05-15T04:49:43.319Z,99072.48
2023-05-15T04:50:48.830Z,99069.84
2023-05-15T04:51:54.765Z,99069.23
2023-05-15T04:53:00.920Z,99070.35
2023-05-15T04:54:06.761Z,99071.08
2023-05-15T04:55:13.308Z,99071.58
2023-05-15T04:56:19.163Z,99070.36
2023-05-15T04:57:26.346Z,99071.40
2023-05-15T04:58:33.398Z,99073.70
2023-05-15T04:59:39.345Z,99073.30
2023-05-15T05:00:45.381Z,99070.20
2023-05-15T05:01:51.403Z,99069.86
2023-05-15T05:02:57.119Z,99066.22
2023-05-15T05:04:03.594Z,99069.77
2023-05-15T05:05:09.792Z,99070.98
2023-05-15T05:06:15.967Z,99074.10
2023-05-15T05:07:21.888Z,99076.17
2023-05-15T05:08:28.043Z,99077.02
2023-05-15T05:09:33.715Z,99076.64
2023-05-15T05:10:39.655Z,99077.67
2023-05-15T05:11:45.489Z,99078.80
2023-05-15T05:12:51.037Z,99079.05
2023-05-15T05:13:56.717Z,99082.44
2023-05-15T05:15:02.129Z,99085.89
2023-05-15T05:16:08.306Z,99087.55
2023-05-15T05:17:13.787Z,99087.32
2023-05-15T05:18:19.354Z,99088.61
2023-05-15T05:19:25.054Z,99088.93
2023-05-15T05:20:31.070Z,99090.54
2023-05-15T05:21:37.078Z,99087.20
2023-05-15T05:22:43.117Z,99084.42
2023-05-15T05:23:48.507Z,99083.14
2023-05-15T05:24:54.483Z,99082.09
2023-05-15T05:26:02.985Z,99082.59
2023-05-15T05:27:09.659Z,99083.94
2023-05-15T05:28:16.001Z,99089.42
2023-05-15T05:29:22.262Z,99090.93
2023-05-15T05:30:27.904Z,99089.19
2023-05-15T05:31:33.992Z,99084.98
2023-05-15T05:32:40.358Z,99084.03
2023-05-15T05:33:46.449Z,99084.36
2023-05-15T05:34:52.190Z,99084.36
2023-05-15T05:35:58.136Z,99088.65
2023-05-15T05:37:04.117Z,99090.80
2023-05-15T05:38:10.363Z,99089.52
2023-05-15T05:39:17.534Z,99089.52
2023-05-15T05:40:23.689Z,99089.92
2023-05-15T05:41:30.021Z,99088.16
2023-05-15T05:42:35.968Z,99087.38
2023-05-15T05:43:41.711Z,99088.38
2023-05-15T05:44:47.153Z,99085.87
2023-05-15T05:45:52.958Z,99088.41
2023-05-15T05:46:59.106Z,99089.13
2023-05-15T05:48:05.601Z,99088.17
2023-05-15T05:49:11.432Z,99086.67
2023-05-15T05:50:17.943Z,99088.36
2023-05-15T05:51:24.265Z,99093.13
2023-05-15T05:52:30.835Z,99094.23
2023-05-15T05:53:37.698Z,99097.90
2023-05-15T05:54:47.026Z,99098.61
2023-05-15T05:55:53.071Z,99099.10
2023-05-15T05:56:58.301Z,99101.31
2023-05-15T05:58:08.536Z,99100.12
2023-05-15T05:59:21.060Z,99099.96
2023-05-15T06:00:26.783Z,99097.23
2023-05-15T06:01:33.045Z,99099.63
2023-05-15T06:02:42.299Z,99102.51
2023-05-15T06:03:48.520Z,99099.95
2023-05-15T06:04:54.727Z,99102.41
2023-05-15T06:06:01.350Z,99106.67
2023-05-15T06:07:07.978Z,99109.07
2023-05-15T06:08:14.143Z,99115.05
2023-05-15T06:09:20.536Z,99120.14
2023-05-15T06:10:26.864Z,99123.92
2023-05-15T06:11:36.185Z,99124.35
2023-05-15T06:12:42.542Z,99126.40
2023-05-15T06:13:47.998Z,99126.02
2023-05-15T06:14:56.336Z,99124.29
2023-05-15T06:16:02.192Z,99126.77
2023-05-15T06:17:07.741Z,99128.90
2023-05-15T06:18:14.187Z,99133.59
2023-05-15T06:19:20.672Z,99131.66
2023-05-15T06:20:27.059Z,99134.38
2023-05-15T06:21:33.052Z,99134.93
2023-05-15T06:22:38.782Z,99132.81
2023-05-15T06:23:44.565Z,99130.69
2023-05-15T06:24:50.377Z,99128.73
2023-05-15T06:25:56.040Z,99130.95
2023-05-15T06:27:01.663Z,99133.16
2023-05-15T06:28:07.526Z,99134.60
2023-05-15T06:29:14.080Z,99133.89
2023-05-15T06:30:20.251Z,99137.06
2023-05-15T06:31:26.342Z,99139.70
2023-05-15T06:32:34.731Z,99140.16
2023-05-15T06:33:40.925Z,99141.27
2023-05-15T06:34:46.566Z,99140.25
2023-05-15T06:35:52.110Z,99142.65
2023-05-15T06:36:58.629Z,99141.50
2023-05-15T06:38:05.246Z,99138.65
2023-05-15T06:39:14.041Z,99135.95
2023-05-15T06:40:19.656Z,99136.20
2023-05-15T06:41:26.060Z,99139.86
2023-05-15T06:42:32.609Z,99139.61
2023-05-15T06:43:38.498Z,99140.48
2023-05-15T06:44:44.793Z,99145.25
2023-05-15T06:45:50.998Z,99143.74
2023-05-15T06:46:57.165Z,99139.47
2023-05-15T06:48:03.297Z,99141.68
2023-05-15T06:49:09.526Z,99137.95
2023-05-15T06:50:16.225Z,99137.40
2023-05-15T06:51:22.250Z,99142.08
2023-05-15T06:52:28.396Z,99144.21
2023-05-15T06:53:34.642Z,99143.13
2023-05-15T06:54:43.741Z,99138.91
2023-05-15T06:55:49.680Z,99138.92
2023-05-15T06:56:55.608Z,99137.73
2023-05-15T06:58:01.179Z,99137.44
2023-05-15T06:59:06.410Z,99139.89
2023-05-15T07:00:12.748Z,99139.77
2023-05-15T07:01:18.439Z,99134.83
2023-05-15T07:02:23.893Z,99133.39
2023-05-15T07:03:29.874Z,99131.53
2023-05-15T07:04:35.781Z,99132.17
2023-05-15T07:05:42.018Z,99132.68
2023-05-15T07:06:47.533Z,99133.85
2023-05-15T07:07:53.492Z,99135.54
2023-05-15T07:09:00.476Z,99135.45
2023-05-15T07:10:07.549Z,99135.06
2023-05-15T07:11:14.524Z,99138.72
2023-05-15T07:12:20.649Z,99139.77
2023-05-15T07:13:26.819Z,99136.98
2023-05-15T07:14:32.694Z,99139.67
2023-05-15T07:15:39.406Z,99144.11
2023-05-15T07:16:47.621Z,99143.71
2023-05-15T07:17:53.924Z,99146.23
2023-05-15T07:19:01.375Z,99143.45
2023-05-15T07:20:08.803Z,99145.84
2023-05-15T07:21:15.265Z,99150.61
2023-05-15T07:22:21.816Z,99147.84
2023-05-15T07:23:27.878Z,99147.38
2023-05-15T07:24:33.820Z,99143.98
2023-05-15T07:25:40.008Z,99141.83
2023-05-15T07:26:57.419Z,99140.32
2023-05-15T07:28:05.176Z,99141.66
2023-05-15T07:29:12.697Z,99140.02
2023-05-15T07:30:19.267Z,99141.23
2023-05-15T07:31:25.992Z,99142.24
2023-05-15T07:32:32.574Z,99141.23
2023-05-15T07:33:38.452Z,99141.89
2023-05-15T07:34:44.962Z,99140.48
2023-05-15T07:35:52.843Z,99140.55
2023-05-15T07:36:58.377Z,99138.49
2023-05-15T07:38:04.681Z,99139.48
2023-05-15T07:39:10.708Z,99138.79
2023-05-15T07:40:17.080Z,99138.38
2023-05-15T07:41:23.078Z,99136.39
2023-05-15T07:42:28.288Z,99136.48
2023-05-15T07:43:34.155Z,99139.53
2023-05-15T07:44:39.476Z,99140.87
2023-05-15T07:45:45.087Z,99141.66
2023-05-15T07:46:51.484Z,99145.72
2023-05-15T07:47:59.172Z,99144.38
2023-05-15T07:49:05.344Z,99144.77
2023-05-15T07:50:12.119Z,99146.60
2023-05-15T07:51:17.944Z,99146.92
2023-05-15T07:52:24.061Z,99147.41
2023-05-15T07:53:30.299Z,99147.58
2023-05-15T07:54:36.671Z,99148.36
2023-05-15T07:55:43.118Z,99146.85
2023-05-15T07:56:48.670Z,99148.53
2023-05-15T07:57:54.368Z,99149.48
2023-05-15T07:58:59.951Z,99149.96
2023-05-15T08:00:11.707Z,99155.11
2023-05-15T08:01:17.944Z,99150.74
2023-05-15T08:02:24.362Z,99147.80
2023-05-15T08:03:31.290Z,99149.77
2023-05-15T08:04:37.889Z,99153.59
2023-05-15T08:05:43.840Z,99157.57
2023-05-15T08:06:49.469Z,99153.27
2023-05-15T08:07:55.436Z,99154.30
2023-05-15T08:09:01.716Z,99152.71
2023-05-15T08:10:09.044Z,99152.65
2023-05-15T08:11:15.402Z,99152.02
2023-05-15T08:12:22.349Z,99150.02
2023-05-15T08:13:27.626Z,99152.80
2023-05-15T08:14:33.289Z,99155.11
2023-05-15T08:15:39.590Z,99155.84
2023-05-15T08:16:45.137Z,99157.60
2023-05-15T08:17:50.824Z,99158.38
2023-05-15T08:19:02.130Z,99157.86
2023-05-15T08:20:09.167Z,99158.52
2023-05-15T08:21:16.075Z,99159.85
2023-05-15T08:22:22.056Z,99162.73
2023-05-15T08:23:28.312Z,99163.67
2023-05-15T08:24:34.337Z,99164.23
2023-05-15T08:25:40.382Z,99164.33
2023-05-15T08:26:46.336Z,99160.96
2023-05-15T08:27:52.108Z,99161.62
2023-05-15T08:28:57.604Z,99158.27
2023-05-15T08:30:04.738Z,99157.47
2023-05-15T08:31:10.465Z,99159.39
2023-05-15T08:32:16.985Z,99159.55
2023-05-15T08:33:23.452Z,99161.61
2023-05-15T08:34:30.132Z,99161.68
2023-05-15T08:35:36.019Z,99162.99
2023-05-15T08:36:42.514Z,99165.67
2023-05-15T08:37:48.352Z,99165.27
2023-05-15T08:38:53.962Z,99163.19
2023-05-15T08:39:59.474Z,99159.23
2023-05-15T08:41:08.853Z,99157.23
2023-05-15T08:42:22.919Z,99153.90
2023-05-15T08:43:28.930Z,99149.38
2023-05-15T08:44:35.192Z,99146.72
2023-05-15T08:45:40.582Z,99145.61
2023-05-15T08:46:46.534Z,99145.21
2023-05-15T08:47:52.151Z,99140.45
2023-05-15T08:48:58.471Z,99137.50
2023-05-15T08:50:15.676Z,99136.00
2023-05-15T08:51:21.738Z,99130.05
2023-05-15T08:52:27.362Z,99124.83
2023-05-15T08:53:33.216Z,99120.05
2023-05-15T08:54:39.171Z,99118.77
2023-05-15T08:55:45.208Z,99116.31
2023-05-15T08:56:51.351Z,99116.00
2023-05-15T08:57:57.275Z,99111.56
2023-05-15T08:59:03.064Z,99108.71
2023-05-15T09:00:09.608Z,99109.66
2023-05-15T09:01:16.182Z,99111.27
2023-05-15T09:02:22.316Z,99109.99
2023-05-15T09:03:29.161Z,99104.77
2023-05-15T09:04:35.343Z,99103.82
2023-05-15T09:05:42.118Z,99102.15
2023-05-15T09:06:48.419Z,99102.70
2023-05-15T09:07:54.681Z,99104.06
2023-05-15T09:09:01.462Z,99101.94
2023-05-15T09:10:08.607Z,99102.10
2023-05-15T09:11:15.238Z,99101.38
2023-05-15T09:12:21.488Z,99098.31
2023-05-15T09:13:28.533Z,99098.08
2023-05-15T09:14:34.230Z,99098.15
2023-05-15T09:15:39.809Z,99097.88
2023-05-15T09:16:47.437Z,99094.87
2023-05-15T09:17:53.998Z,99092.55
2023-05-15T09:18:59.963Z,99096.16
2023-05-15T09:20:07.177Z,99098.15
2023-05-15T09:21:29.649Z,99097.44
2023-05-15T09:22:39.381Z,99095.89
2023-05-15T09:23:44.733Z,99093.24
2023-05-15T09:24:52.294Z,99091.35
2023-05-15T09:25:58.042Z,99095.24
2023-05-15T09:27:08.637Z,99095.95
2023-05-15T09:28:32.028Z,99097.70
2023-05-15T09:29:38.363Z,99093.57
2023-05-15T09:30:44.464Z,99096.19
2023-05-15T09:31:49.778Z,99091.73
2023-05-15T09:32:56.756Z,99090.80
2023-05-15T09:34:04.991Z,99089.91
2023-05-15T09:35:35.605Z,99094.45
2023-05-15T09:36:45.694Z,99092.92
2023-05-15T09:37:58.515Z,99093.26
2023-05-15T09:39:05.184Z,99087.92
2023-05-15T09:40:12.378Z,99090.23
2023-05-15T09:41:18.688Z,99089.36
2023-05-15T09:42:25.238Z,99089.06
2023-05-15T09:43:34.404Z,99087.89
2023-05-15T09:44:44.181Z,99087.89
2023-05-15T09:45:49.778Z,99083.73
2023-05-15T09:46:55.542Z,99081.94
2023-05-15T09:48:06.724Z,99083.70
2023-05-15T09:49:12.413Z,99084.42
2023-05-15T09:50:24.110Z,99080.92
2023-05-15T09:51:29.935Z,99079.80
2023-05-15T09:52:35.671Z,99083.15
2023-05-15T09:53:42.316Z,99083.08
2023-05-15T09:54:50.273Z,99081.89
2023-05-15T09:56:00.010Z,99079.75
2023-05-15T09:57:10.969Z,99079.52
2023-05-15T09:58:18.072Z,99082.29
2023-05-15T09:59:25.101Z,99079.42
2023-05-15T10:00:32.645Z,99079.42
2023-05-15T10:01:38.856Z,99080.77
2023-05-15T10:02:44.899Z,99080.30
2023-05-15T10:04:02.792Z,99078.23
2023-05-15T10:05:09.739Z,99077.13
2023-05-15T10:06:20.312Z,99075.54
2023-05-15T10:07:34.178Z,99077.23
2023-05-15T10:08:41.829Z,99077.06
2023-05-15T10:09:48.095Z,99079.52
2023-05-15T10:10:54.638Z,99078.73
2023-05-15T10:12:00.945Z,99080.89
2023-05-15T10:13:06.812Z,99076.77
2023-05-15T10:14:13.994Z,99075.00
2023-05-15T10:15:21.819Z,99077.00
2023-05-15T10:16:27.270Z,99078.59
2023-05-15T10:17:34.021Z,99076.54
2023-05-15T10:18:40.008Z,99074.06
2023-05-15T10:19:57.140Z,99073.50
2023-05-15T10:21:04.949Z,99070.16
2023-05-15T10:22:10.577Z,99072.13
2023-05-15T10:23:16.826Z,99071.27
2023-05-15T10:24:23.128Z,99068.24
2023-05-15T10:25:51.395Z,99069.74
2023-05-15T10:26:57.386Z,99068.24
2023-05-15T10:28:04.151Z,99072.85
2023-05-15T10:29:14.328Z,99070.02
2023-05-15T10:30:20.860Z,99071.67
2023-05-15T10:31:26.874Z,99073.60
2023-05-15T10:32:33.108Z,99073.96
2023-05-15T10:33:39.358Z,99075.52
2023-05-15T10:34:45.254Z,99075.05
2023-05-15T10:35:51.957Z,99076.64
2023-05-15T10:36:57.991Z,99077.26
2023-05-15T10:38:06.468Z,99078.07
2023-05-15T10:39:11.935Z,99078.06
2023-05-15T10:40:17.883Z,99080.39
2023-05-15T10:41:23.939Z,99082.28
2023-05-15T10:42:29.630Z,99079.02
2023-05-15T10:43:35.928Z,99079.50
2023-05-15T10:44:41.763Z,99085.45
2023-05-15T10:45:47.387Z,99081.33
2023-05-15T10:46:52.939Z,99083.63
2023-05-15T10:47:59.557Z,99082.60
2023-05-15T10:49:06.055Z,99085.55
2023-05-15T10:50:13.876Z,99085.38
2023-05-15T10:51:25.850Z,99084.36
2023-05-15T10:52:34.293Z,99087.15
2023-05-15T10:53:40.612Z,99089.30
2023-05-15T10:54:47.364Z,99091.62
2023-05-15T10:55:52.809Z,99092.34
2023-05-15T10:56:58.773Z,99093.85
2023-05-15T10:58:11.063Z,99091.23
2023-05-15T10:59:17.312Z,99093.23
2023-05-15T11:00:28.155Z,99092.51
2023-05-15T11:01:35.601Z,99092.27
2023-05-15T11:02:41.848Z,99095.77
2023-05-15T11:03:50.016Z,99092.44
2023-05-15T11:05:03.936Z,99092.21
2023-05-15T11:06:14.681Z,99089.66
2023-05-15T11:07:21.917Z,99087.66
2023-05-15T11:08:29.124Z,99090.05
2023-05-15T11:09:36.512Z,99087.90
2023-05-15T11:10:42.128Z,99087.52
2023-05-15T11:12:12.428Z,99084.48
2023-05-15T11:13:18.577Z,99087.31
2023-05-15T11:14:26.315Z,99086.36
2023-05-15T11:15:43.291Z,99083.36
2023-05-15T11:17:04.760Z,99083.04
2023-05-15T11:18:11.033Z,99084.70
2023-05-15T11:19:37.525Z,99083.20
2023-05-15T11:21:04.378Z,99081.27
2023-05-15T11:22:32.442Z,99080.38
2023-05-15T11:23:42.203Z,99079.02
2023-05-15T11:25:02.936Z,99077.73
2023-05-15T11:26:08.364Z,99078.55
2023-05-15T11:27:14.342Z,99080.85
2023-05-15T11:28:23.561Z,99085.20
2023-05-15T11:29:29.798Z,99085.59
2023-05-15T11:30:40.526Z,99085.13
2023-05-15T11:31:46.687Z,99068.88
2023-05-15T11:33:12.870Z,99065.39
2023-05-15T11:34:35.264Z,99067.58
2023-05-15T11:35:49.157Z,99068.92
2023-05-15T11:36:54.625Z,99067.19
2023-05-15T11:38:03.782Z,99064.73
2023-05-15T11:39:13.372Z,99062.58
2023-05-15T11:40:27.648Z,99064.11
2023-05-15T11:41:34.295Z,99062.99
2023-05-15T11:42:40.540Z,99059.53
2023-05-15T11:43:46.698Z,99054.30
2023-05-15T11:44:52.211Z,99055.20
2023-05-15T11:46:15.008Z,99055.59
2023-05-15T11:47:20.573Z,99056.79
2023-05-15T11:48:30.530Z,99053.29
2023-05-15T11:49:36.403Z,99051.65
2023-05-15T11:50:42.862Z,99053.15
2023-05-15T11:51:51.555Z,99053.80
2023-05-15T11:52:57.518Z,99050.58
2023-05-15T11:54:03.254Z,99051.20
2023-05-15T11:55:09.957Z,99052.41
2023-05-15T11:56:20.063Z,99054.85
2023-05-15T11:57:26.204Z,99055.73
2023-05-15T11:58:32.452Z,99054.23
2023-05-15T11:59:38.308Z,99054.33
2023-05-15T12:00:45.900Z,99053.54
2023-05-15T12:01:51.724Z,99054.42
2023-05-15T12:02:58.272Z,99054.42
2023-05-15T12:04:04.710Z,99055.70
2023-05-15T12:05:11.795Z,99060.14
2023-05-15T12:06:17.973Z,99055.46
2023-05-15T12:07:23.635Z,99058.08
2023-05-15T12:08:35.628Z,99058.98
2023-05-15T12:09:41.557Z,99061.12
2023-05-15T12:10:47.063Z,99058.48
2023-05-15T12:11:53.408Z,99058.57
2023-05-15T12:12:59.337Z,99063.17
2023-05-15T12:14:04.954Z,99063.02
2023-05-15T12:15:14.545Z,99060.48
2023-05-15T12:16:19.832Z,99058.89
2023-05-15T12:17:26.140Z,99063.38
2023-05-15T12:18:35.043Z,99066.05
2023-05-15T12:19:41.844Z,99068.60
2023-05-15T12:20:47.482Z,99067.60
2023-05-15T12:21:53.325Z,99063.70
2023-05-15T12:22:59.555Z,99066.73
2023-05-15T12:24:08.146Z,99066.11
2023-05-15T12:25:16.072Z,99067.45
2023-05-15T12:26:23.294Z,99069.51
2023-05-15T12:27:30.005Z,99072.36
2023-05-15T12:28:36.278Z,99072.78
2023-05-15T12:29:42.494Z,99078.01
2023-05-15T12:30:48.072Z,99079.81
2023-05-15T12:31:54.341Z,99078.67
2023-05-15T12:33:03.873Z,99080.40
2023-05-15T12:34:10.711Z,99077.33
2023-05-15T12:35:17.155Z,99077.70
2023-05-15T12:36:23.241Z,99079.40
2023-05-15T12:37:29.161Z,99079.83
2023-05-15T12:38:35.641Z,99077.81
2023-05-15T12:40:01.641Z,99080.36
2023-05-15T12:41:07.484Z,99081.55
2023-05-15T12:42:13.723Z,99085.13
2023-05-15T12:43:20.204Z,99086.37
2023-05-15T12:44:27.767Z,99088.50
2023-05-15T12:45:35.832Z,99089.30
2023-05-15T12:46:42.018Z,99089.69
2023-05-15T12:47:49.092Z,99091.67
2023-05-15T12:48:54.466Z,99092.35
2023-05-15T12:50:01.009Z,99091.55
2023-05-15T12:51:09.407Z,99089.56
2023-05-15T12:52:16.694Z,99090.83
2023-05-15T12:53:26.131Z,99090.39
2023-05-15T12:54:31.956Z,99088.71
2023-05-15T12:55:37.891Z,99091.55
2023-05-15T12:56:46.871Z,99090.11
2023-05-15T12:57:52.791Z,99091.86
2023-05-15T12:58:58.158Z,99091.14
2023-05-15T13:00:03.345Z,99092.55
2023-05-15T13:01:09.186Z,99089.91
2023-05-15T13:02:15.006Z,99090.05
2023-05-15T13:03:22.957Z,99087.53
2023-05-15T13:04:29.108Z,99090.77
2023-05-15T13:05:36.011Z,99093.23
2023-05-15T13:06:46.780Z,99096.63
2023-05-15T13:07:54.189Z,99096.79
2023-05-15T13:09:00.727Z,99099.24
2023-05-15T13:10:07.766Z,99103.16
2023-05-15T13:11:14.795Z,99106.98
2023-05-15T13:12:21.304Z,99106.02
2023-05-15T13:13:43.911Z,99110.33
2023-05-15T13:14:50.082Z,99109.28
2023-05-15T13:15:56.526Z,99105.18